Time;durP1;ratioP1;P1;durP2;ratioP2;P2;SDS_P1;SDS_P2;PMS_P1;PMS_P2;Temp;Humidity;BMP_temperature;BMP_pressure;BME280_temperature;BME280_humidity;BME280_pressure;Samples;Min_cycle;Max_cycle;Signal;HPM_P1;HPM_P2
2022/08/16 00:01:26;;;;;;;22.50;20.85;;;17.80;99.90;;;;;;5051185;28;20072;-70
2022/08/16 00:03:59;;;;;;;22.55;20.85;;;17.70;99.90;;;;;;5054133;28;20041;-69
2022/08/16 00:06:28;;;;;;;22.73;20.50;;;17.70;99.90;;;;;;5051290;28;20477;-70
2022/08/16 00:08:54;;;;;;;23.85;21.70;;;17.70;99.90;;;;;;5050284;28;20049;-70
2022/08/16 00:11:21;;;;;;;21.80;20.00;;;17.70;99.90;;;;;;5047524;28;20050;-69
2022/08/16 00:13:50;;;;;;;23.48;21.13;;;17.80;99.90;;;;;;5050787;28;20404;-68
2022/08/16 00:16:26;;;;;;;24.48;22.38;;;18.00;99.90;;;;;;5050997;28;20232;-71
2022/08/16 00:19:20;;;;;;;24.38;22.40;;;18.20;99.90;;;;;;5050903;28;20068;-71
2022/08/16 00:21:49;;;;;;;26.48;24.27;;;18.20;99.90;;;;;;5048630;28;20044;-70
2022/08/16 00:24:25;;;;;;;26.10;23.90;;;18.20;99.90;;;;;;5050161;28;20129;-70
2022/08/16 00:27:02;;;;;;;25.85;23.50;;;18.10;99.90;;;;;;5047573;28;20155;-71
2022/08/16 00:29:30;;;;;;;26.17;24.00;;;18.30;99.90;;;;;;5052031;28;20036;-70
2022/08/16 00:32:00;;;;;;;25.02;23.13;;;18.40;99.90;;;;;;5052149;28;20051;-70
2022/08/16 00:34:34;;;;;;;25.67;23.42;;;18.50;99.90;;;;;;5081675;28;20454;-70
2022/08/16 00:37:23;;;;;;;23.50;21.70;;;18.40;99.90;;;;;;5051859;28;20070;-68
2022/08/16 00:40:16;;;;;;;25.75;23.55;;;18.30;99.90;;;;;;5052435;28;20156;-70
2022/08/16 00:43:28;;;;;;;25.15;23.15;;;18.10;99.90;;;;;;5053704;28;20113;-73
2022/08/16 00:46:28;;;;;;;27.58;25.30;;;18.10;99.90;;;;;;5048025;28;20066;-70
2022/08/16 00:49:08;;;;;;;24.42;22.70;;;18.20;99.90;;;;;;5050365;28;20053;-70
2022/08/16 00:51:47;;;;;;;25.50;23.33;;;18.20;99.90;;;;;;5050172;28;20080;-70
2022/08/16 00:54:25;;;;;;;24.83;23.00;;;18.20;99.90;;;;;;5047988;28;20135;-71
2022/08/16 00:56:55;;;;;;;24.35;22.27;;;18.10;99.90;;;;;;5049701;28;20167;-70
2022/08/16 00:59:28;;;;;;;24.35;22.27;;;18.10;99.90;;;;;;5048266;28;20175;-71
2022/08/16 01:01:59;;;;;;;24.73;22.70;;;18.00;99.90;;;;;;5052764;28;20044;-70
2022/08/16 01:04:46;;;;;;;23.55;21.45;;;18.00;99.90;;;;;;5048767;28;20036;-71
2022/08/16 01:07:34;;;;;;;24.58;22.63;;;17.80;99.90;;;;;;5029307;28;20076;-70
2022/08/16 01:10:21;;;;;;;24.13;22.10;;;17.80;99.90;;;;;;5024799;28;20052;-71
2022/08/16 01:13:01;;;;;;;23.00;21.05;;;17.80;99.90;;;;;;5033582;28;20049;-70
2022/08/16 01:15:36;;;;;;;23.15;21.33;;;17.60;99.90;;;;;;5031620;28;20037;-69
2022/08/16 01:18:06;;;;;;;23.95;21.95;;;17.70;99.90;;;;;;5031166;28;20165;-70
2022/08/16 01:21:03;;;;;;;22.65;20.85;;;17.60;99.90;;;;;;5031906;28;20044;-70
2022/08/16 01:23:59;;;;;;;22.88;21.00;;;17.60;99.90;;;;;;5032954;28;20060;-70
2022/08/16 01:26:30;;;;;;;22.67;20.73;;;17.60;99.90;;;;;;5020617;28;20041;-69
2022/08/16 01:29:08;;;;;;;21.80;20.30;;;17.50;99.90;;;;;;5036424;28;20422;-70
2022/08/16 01:31:36;;;;;;;23.00;21.17;;;17.50;99.90;;;;;;5034517;28;20072;-69
2022/08/16 01:34:12;;;;;;;22.98;21.08;;;17.60;99.90;;;;;;5035053;28;20049;-71
2022/08/16 01:37:09;;;;;;;23.83;21.88;;;17.60;99.90;;;;;;5031684;28;20434;-69
2022/08/16 01:39:36;;;;;;;23.33;21.33;;;17.70;99.90;;;;;;5062481;28;20048;-70
2022/08/16 01:42:07;;;;;;;23.95;21.98;;;17.60;99.90;;;;;;5033809;28;20152;-70
2022/08/16 01:44:40;;;;;;;22.98;21.35;;;17.60;99.90;;;;;;5044158;28;20102;-69
2022/08/16 01:47:09;;;;;;;24.50;22.35;;;17.40;99.90;;;;;;5045851;28;20071;-69
2022/08/16 01:49:39;;;;;;;23.30;21.50;;;17.40;99.90;;;;;;5037012;28;20045;-71
2022/08/16 01:52:26;;;;;;;24.08;21.92;;;17.30;99.90;;;;;;5037244;28;20526;-70
2022/08/16 01:55:20;;;;;;;23.70;21.80;;;17.50;99.90;;;;;;5034146;28;20202;-70
2022/08/16 01:57:49;;;;;;;24.25;22.55;;;17.60;99.90;;;;;;5063227;28;20101;-69
2022/08/16 02:00:24;;;;;;;23.85;22.00;;;17.70;99.90;;;;;;5031900;28;20710;-70
2022/08/16 02:02:56;;;;;;;24.10;22.25;;;17.70;99.90;;;;;;5049228;28;20498;-70
2022/08/16 02:05:23;;;;;;;25.25;23.33;;;17.70;99.90;;;;;;5032969;28;20482;-71
2022/08/16 02:07:56;;;;;;;25.13;23.02;;;17.60;99.90;;;;;;5028923;28;20044;-69
2022/08/16 02:10:24;;;;;;;24.77;22.92;;;17.60;99.90;;;;;;5025070;28;20124;-70
2022/08/16 02:12:53;;;;;;;25.00;23.17;;;17.60;99.90;;;;;;5036214;28;20442;-70
2022/08/16 02:15:30;;;;;;;24.98;23.17;;;17.60;99.90;;;;;;5033417;28;20041;-70
2022/08/16 02:18:08;;;;;;;24.40;22.65;;;17.50;99.90;;;;;;5034162;28;20163;-69
2022/08/16 02:20:41;;;;;;;24.88;22.98;;;17.50;99.90;;;;;;5035212;28;20107;-70
2022/08/16 02:23:12;;;;;;;25.63;23.77;;;17.20;99.90;;;;;;5032541;28;20047;-69
2022/08/16 02:25:44;;;;;;;25.35;23.35;;;17.10;99.90;;;;;;5031979;28;20379;-70
2022/08/16 02:28:23;;;;;;;24.63;22.90;;;17.10;99.90;;;;;;5031436;28;20395;-70
2022/08/16 02:30:54;;;;;;;24.27;22.45;;;17.10;99.90;;;;;;5040201;28;20442;-70
2022/08/16 02:33:22;;;;;;;24.30;22.20;;;17.00;99.90;;;;;;5030668;28;20131;-70
2022/08/16 02:36:11;;;;;;;24.20;22.27;;;16.80;99.90;;;;;;5033322;28;20423;-69
2022/08/16 02:38:58;;;;;;;23.73;21.75;;;16.70;99.90;;;;;;5032851;28;20257;-69
2022/08/16 02:41:25;;;;;;;23.35;21.63;;;16.60;99.90;;;;;;5033804;28;20495;-69
2022/08/16 02:43:52;;;;;;;22.58;20.88;;;16.50;99.90;;;;;;5078903;22;20052;-77
2022/08/16 02:46:19;;;;;;;21.75;20.25;;;16.50;99.90;;;;;;5020017;28;20036;-77
2022/08/16 02:48:56;;;;;;;22.85;21.25;;;16.30;99.90;;;;;;5039546;28;20102;-75
2022/08/16 02:51:27;;;;;;;23.33;21.52;;;16.30;99.90;;;;;;5058653;28;20117;-77
2022/08/16 02:53:54;;;;;;;23.65;21.75;;;16.30;99.90;;;;;;5049197;28;20049;-77
2022/08/16 02:56:23;;;;;;;22.00;20.20;;;16.20;99.90;;;;;;5070910;28;20071;-77
2022/08/16 02:58:57;;;;;;;22.27;20.65;;;16.10;99.90;;;;;;5046572;28;20079;-77
2022/08/16 03:01:29;;;;;;;23.48;21.50;;;16.00;99.90;;;;;;5061098;28;20677;-76
2022/08/16 03:04:12;;;;;;;23.20;21.15;;;15.90;99.90;;;;;;5052792;28;20090;-75
2022/08/16 03:06:59;;;;;;;22.73;21.02;;;15.60;99.90;;;;;;5076958;22;20047;-77
2022/08/16 03:09:40;;;;;;;22.63;20.92;;;15.50;99.90;;;;;;5012547;28;20048;-74
2022/08/16 03:12:10;;;;;;;23.13;20.92;;;15.50;99.90;;;;;;5016560;28;20044;-76
2022/08/16 03:14:43;;;;;;;20.08;18.35;;;15.50;99.90;;;;;;5022052;28;20032;-76
2022/08/16 03:17:11;;;;;;;19.80;18.10;;;15.40;99.90;;;;;;5001480;28;20136;-77
2022/08/16 03:19:39;;;;;;;21.30;19.20;;;15.50;99.90;;;;;;5021476;28;20082;-76
2022/08/16 03:22:27;;;;;;;20.35;18.70;;;15.60;99.90;;;;;;5043682;28;21002;-76
2022/08/16 03:25:03;;;;;;;18.40;16.85;;;15.60;99.90;;;;;;5016944;28;20231;-76
2022/08/16 03:27:37;;;;;;;21.50;19.25;;;15.60;99.90;;;;;;5040460;28;20048;-76
2022/08/16 03:30:21;;;;;;;21.42;19.58;;;15.60;99.90;;;;;;5042510;28;20065;-76
2022/08/16 03:32:52;;;;;;;21.23;19.30;;;15.50;99.90;;;;;;5040420;28;20812;-76
2022/08/16 03:35:26;;;;;;;21.10;19.40;;;15.50;99.90;;;;;;5052596;28;20043;-76
2022/08/16 03:38:04;;;;;;;22.65;20.65;;;15.40;99.90;;;;;;5039761;28;20510;-76
2022/08/16 03:40:53;;;;;;;22.33;20.52;;;15.50;99.90;;;;;;5054997;28;20046;-78
2022/08/16 03:43:24;;;;;;;23.40;21.45;;;15.40;99.90;;;;;;5029885;28;20044;-76
2022/08/16 03:46:14;;;;;;;22.80;20.85;;;15.30;99.90;;;;;;5024472;28;20090;-77
2022/08/16 03:49:01;;;;;;;22.92;21.23;;;15.30;99.90;;;;;;5017909;28;20051;-76
2022/08/16 03:51:28;;;;;;;22.70;20.90;;;15.30;99.90;;;;;;5052934;28;20142;-76
2022/08/16 03:54:02;;;;;;;23.30;21.08;;;15.20;99.90;;;;;;5018403;28;20544;-76
2022/08/16 03:56:39;;;;;;;22.50;20.58;;;15.10;99.90;;;;;;5040970;28;20640;-76
2022/08/16 03:59:25;;;;;;;23.15;21.25;;;15.20;99.90;;;;;;5063607;28;20093;-76
2022/08/16 04:01:57;;;;;;;22.42;20.33;;;15.20;99.90;;;;;;5044046;28;20137;-74
2022/08/16 04:04:27;;;;;;;19.65;18.10;;;15.20;99.90;;;;;;5032539;28;20040;-74
2022/08/16 04:07:04;;;;;;;21.15;19.10;;;15.10;99.90;;;;;;5008836;28;20056;-74
2022/08/16 04:09:36;;;;;;;19.75;18.15;;;15.00;99.90;;;;;;5048733;28;20423;-74
2022/08/16 04:12:06;;;;;;;22.05;19.90;;;15.00;99.90;;;;;;5033837;28;20040;-74
2022/08/16 04:14:39;;;;;;;22.33;20.15;;;15.00;99.90;;;;;;5033921;28;20048;-74
2022/08/16 04:17:15;;;;;;;21.67;19.95;;;14.90;99.90;;;;;;5033861;28;20051;-74
2022/08/16 04:19:43;;;;;;;21.15;19.35;;;15.00;99.90;;;;;;5031331;28;20128;-74
2022/08/16 04:22:15;;;;;;;21.00;19.30;;;14.90;99.90;;;;;;5034270;28;20051;-74
2022/08/16 04:24:51;;;;;;;22.02;20.17;;;14.80;99.90;;;;;;5053028;28;20040;-76
2022/08/16 04:27:22;;;;;;;22.58;20.88;;;14.80;99.90;;;;;;5032114;28;20589;-74
2022/08/16 04:29:54;;;;;;;23.73;21.92;;;14.70;99.90;;;;;;5034640;28;20513;-75
2022/08/16 04:32:30;;;;;;;23.60;21.67;;;14.70;99.90;;;;;;5043745;28;20039;-75
2022/08/16 04:34:57;;;;;;;24.23;22.33;;;14.70;99.90;;;;;;5041516;28;20047;-74
2022/08/16 04:37:31;;;;;;;24.42;22.63;;;14.70;99.90;;;;;;5017860;28;20550;-76
2022/08/16 04:40:15;;;;;;;23.98;21.85;;;14.90;99.90;;;;;;5030941;28;20044;-76
2022/08/16 04:42:49;;;;;;;23.73;21.80;;;14.90;99.90;;;;;;5049091;28;20044;-76
2022/08/16 04:45:16;;;;;;;23.50;21.70;;;14.90;99.90;;;;;;5035298;28;20317;-76
2022/08/16 04:48:05;;;;;;;24.02;22.00;;;15.00;99.90;;;;;;5050174;28;20624;-76
2022/08/16 04:50:40;;;;;;;23.75;21.83;;;14.90;99.90;;;;;;5038741;28;20651;-76
2022/08/16 04:53:14;;;;;;;23.42;21.67;;;15.20;99.90;;;;;;5038821;28;20044;-76
2022/08/16 04:55:43;;;;;;;24.80;22.83;;;15.40;99.90;;;;;;5038338;28;20047;-76
2022/08/16 04:58:11;;;;;;;22.75;21.15;;;15.40;99.90;;;;;;5038616;28;20051;-76
2022/08/16 05:00:59;;;;;;;22.88;21.17;;;15.60;99.90;;;;;;5064711;28;20040;-76
2022/08/16 05:03:27;;;;;;;22.52;20.73;;;15.60;99.90;;;;;;5035757;28;21370;-75
2022/08/16 05:05:54;;;;;;;23.35;21.58;;;15.80;99.90;;;;;;5046171;28;20051;-74
2022/08/16 05:08:33;;;;;;;22.58;20.85;;;15.80;99.90;;;;;;5041904;28;20043;-74
2022/08/16 05:11:08;;;;;;;21.95;20.35;;;15.70;99.90;;;;;;5021984;28;20338;-75
2022/08/16 05:13:39;;;;;;;24.77;22.42;;;15.90;99.90;;;;;;5042450;28;20461;-74
2022/08/16 05:16:15;;;;;;;22.23;20.52;;;16.00;99.90;;;;;;5046776;28;20076;-75
2022/08/16 05:18:53;;;;;;;24.95;22.85;;;16.10;99.90;;;;;;5044069;28;20127;-75
2022/08/16 05:21:27;;;;;;;23.02;21.25;;;16.10;99.90;;;;;;5036863;28;20043;-74
2022/08/16 05:24:02;;;;;;;23.63;21.88;;;16.10;99.90;;;;;;5022888;28;20059;-74
2022/08/16 05:26:36;;;;;;;22.85;21.15;;;16.10;99.90;;;;;;5038986;28;20041;-75
2022/08/16 05:29:06;;;;;;;23.40;21.60;;;16.10;99.90;;;;;;5034684;28;20055;-75
2022/08/16 05:31:46;;;;;;;23.63;21.80;;;16.10;99.90;;;;;;5052498;28;20047;-75
2022/08/16 05:34:20;;;;;;;24.45;22.45;;;16.10;99.90;;;;;;5036373;28;20401;-75
2022/08/16 05:36:51;;;;;;;23.95;22.25;;;16.20;99.90;;;;;;5056459;28;20048;-75
2022/08/16 05:39:20;;;;;;;23.58;21.77;;;16.10;99.90;;;;;;5019132;28;20149;-75
2022/08/16 05:41:50;;;;;;;23.83;21.92;;;16.10;99.90;;;;;;5044496;28;20040;-75
2022/08/16 05:44:20;;;;;;;23.83;22.02;;;16.10;99.90;;;;;;5034765;28;20586;-75
2022/08/16 05:46:53;;;;;;;24.58;22.67;;;16.10;99.90;;;;;;5043821;28;20703;-74
2022/08/16 05:49:21;;;;;;;24.35;22.27;;;16.10;99.90;;;;;;5029372;28;20041;-74
2022/08/16 05:51:54;;;;;;;23.95;22.02;;;16.10;99.90;;;;;;5029401;28;20139;-75
2022/08/16 05:54:22;;;;;;;24.88;22.58;;;16.20;99.90;;;;;;5030736;28;20046;-74
2022/08/16 05:56:56;;;;;;;24.65;22.33;;;16.40;99.90;;;;;;5038664;28;20055;-74
2022/08/16 05:59:24;;;;;;;23.55;21.70;;;16.50;99.90;;;;;;5034918;28;20044;-74
2022/08/16 06:01:53;;;;;;;24.50;22.48;;;16.60;99.90;;;;;;5044729;28;20048;-75
2022/08/16 06:04:25;;;;;;;23.88;21.60;;;16.60;99.90;;;;;;5033167;28;20073;-74
2022/08/16 06:07:05;;;;;;;24.38;22.38;;;16.60;99.90;;;;;;5036783;28;20033;-74
2022/08/16 06:09:37;;;;;;;24.05;22.02;;;16.60;99.90;;;;;;5040281;28;20040;-75
2022/08/16 06:12:14;;;;;;;23.60;21.77;;;16.70;99.90;;;;;;5039191;28;20144;-74
2022/08/16 06:14:58;;;;;;;24.00;22.02;;;16.80;99.90;;;;;;5051444;28;20040;-74
2022/08/16 06:17:28;;;;;;;23.10;21.30;;;16.90;99.90;;;;;;5042298;28;20047;-74
2022/08/16 06:20:15;;;;;;;23.63;21.77;;;16.90;99.90;;;;;;5040938;28;20412;-74
2022/08/16 06:22:51;;;;;;;23.83;21.83;;;17.10;99.90;;;;;;5034944;28;20048;-74
2022/08/16 06:25:36;;;;;;;;;;;17.30;99.90;;;;;;5055816;28;20048;-74
2022/08/16 06:28:08;;;;;;;23.55;21.95;;;17.40;99.90;;;;;;5022202;28;19924;-74
2022/08/16 06:30:39;;;;;;;24.73;22.92;;;17.70;99.90;;;;;;5037344;28;20052;-75
2022/08/16 06:33:15;;;;;;;25.33;23.30;;;18.00;99.90;;;;;;5047895;28;20053;-75
2022/08/16 06:35:51;;;;;;;27.90;25.92;;;18.40;99.90;;;;;;5032167;28;20048;-74
2022/08/16 06:38:27;;;;;;;27.40;25.40;;;18.90;99.90;;;;;;5037468;28;20587;-73
2022/08/16 06:41:05;;;;;;;28.40;26.15;;;19.40;99.90;;;;;;5045356;28;20044;-74
2022/08/16 06:43:40;;;;;;;28.25;26.02;;;19.80;99.90;;;;;;5042695;28;20040;-74
2022/08/16 06:46:33;;;;;;;27.58;25.45;;;20.40;99.90;;;;;;5014875;28;20524;-74
2022/08/16 06:49:10;;;;;;;28.20;26.02;;;20.90;99.90;;;;;;5037808;28;20049;-74
2022/08/16 06:51:38;;;;;;;26.48;24.67;;;21.50;99.90;;;;;;5043177;28;21740;-74
2022/08/16 06:54:19;;;;;;;28.50;26.60;;;22.10;99.90;;;;;;5033220;28;20040;-74
2022/08/16 06:56:46;;;;;;;28.83;26.80;;;22.60;99.90;;;;;;5038474;28;20040;-74
2022/08/16 06:59:18;;;;;;;28.55;26.48;;;22.90;99.90;;;;;;5018865;28;20048;-74
2022/08/16 07:01:53;;;;;;;29.08;27.13;;;23.10;99.90;;;;;;5045488;28;20591;-72
2022/08/16 07:04:26;;;;;;;27.63;25.63;;;23.30;99.90;;;;;;5042881;28;20570;-72
2022/08/16 07:07:04;;;;;;;28.75;26.55;;;23.70;99.90;;;;;;5025438;28;20059;-73
2022/08/16 07:09:31;;;;;;;28.77;26.85;;;23.80;99.90;;;;;;5036787;28;20595;-72
2022/08/16 07:11:58;;;;;;;29.85;27.40;;;24.00;99.90;;;;;;5027667;28;20050;-72
2022/08/16 07:14:32;;;;;;;29.88;27.40;;;24.20;99.90;;;;;;5038576;28;20970;-72
2022/08/16 07:17:02;;;;;;;29.05;27.02;;;24.30;99.90;;;;;;5040939;28;20062;-73
2022/08/16 07:19:34;;;;;;;29.80;27.70;;;24.10;99.90;;;;;;5020135;28;20043;-72
2022/08/16 07:22:25;;;;;;;31.48;29.05;;;24.00;99.90;;;;;;5019982;28;20594;-72
2022/08/16 07:25:18;;;;;;;31.67;29.48;;;24.40;99.90;;;;;;5036237;28;20073;-72
2022/08/16 07:27:48;;;;;;;31.80;29.75;;;24.20;99.90;;;;;;5023771;28;20507;-72
2022/08/16 07:30:19;;;;;;;32.90;30.63;;;24.00;99.90;;;;;;5047050;28;20132;-72
2022/08/16 07:33:09;;;;;;;34.92;32.28;;;24.20;99.90;;;;;;5042567;28;20036;-72
2022/08/16 07:35:41;;;;;;;35.35;32.65;;;24.40;99.90;;;;;;5040953;28;20093;-73
2022/08/16 07:38:12;;;;;;;33.30;31.00;;;24.60;99.90;;;;;;5042167;28;20052;-72
2022/08/16 07:40:51;;;;;;;34.35;31.70;;;24.70;99.90;;;;;;5053441;28;20089;-72
2022/08/16 07:43:30;;;;;;;35.97;33.35;;;24.70;99.90;;;;;;5033632;28;20122;-73
2022/08/16 07:46:00;;;;;;;34.67;32.17;;;24.90;99.90;;;;;;5043765;28;20044;-73
2022/08/16 07:48:30;;;;;;;34.80;32.45;;;24.80;99.90;;;;;;5018916;28;20048;-72
2022/08/16 07:50:58;;;;;;;35.25;33.00;;;24.60;99.90;;;;;;5043830;28;20048;-73
2022/08/16 07:53:33;;;;;;;34.42;32.03;;;24.60;99.90;;;;;;5038532;28;20907;-72
2022/08/16 07:56:10;;;;;;;36.60;33.92;;;24.60;99.90;;;;;;5048022;28;20140;-72
2022/08/16 07:58:39;;;;;;;36.05;33.35;;;24.50;99.90;;;;;;5037639;28;20051;-72
2022/08/16 08:01:12;;;;;;;36.08;33.67;;;24.50;99.90;;;;;;5041442;28;20055;-73
2022/08/16 08:03:49;;;;;;;35.28;32.83;;;24.70;99.90;;;;;;5020504;28;20049;-71
2022/08/16 08:06:29;;;;;;;35.22;32.90;;;24.80;99.90;;;;;;5035736;28;20036;-72
2022/08/16 08:09:03;;;;;;;35.85;33.50;;;25.10;99.90;;;;;;5053975;28;20055;-71
2022/08/16 08:11:29;;;;;;;35.53;32.92;;;25.30;99.90;;;;;;5020465;28;20508;-70
2022/08/16 08:14:00;;;;;;;35.28;32.78;;;25.60;99.90;;;;;;5043195;28;20311;-72
2022/08/16 08:16:31;;;;;;;36.28;33.90;;;25.60;99.90;;;;;;5034750;28;20419;-71
2022/08/16 08:18:59;;;;;;;36.58;33.72;;;25.50;99.90;;;;;;5040325;28;20493;-72
2022/08/16 08:21:31;;;;;;;37.70;35.00;;;25.70;99.90;;;;;;5037166;28;20040;-72
2022/08/16 08:24:21;;;;;;;36.22;33.90;;;25.80;99.90;;;;;;5030841;28;20554;-72
2022/08/16 08:26:59;;;;;;;36.05;33.65;;;25.90;99.90;;;;;;5041472;28;20284;-71
2022/08/16 08:29:29;;;;;;;35.70;33.40;;;26.00;99.90;;;;;;5051983;28;20066;-72
2022/08/16 08:32:08;;;;;;;34.53;32.10;;;26.00;99.90;;;;;;5042683;28;20170;-72
2022/08/16 08:35:00;;;;;;;33.45;31.30;;;26.00;99.90;;;;;;5038974;28;20131;-71
2022/08/16 08:37:32;;;;;;;33.92;31.73;;;26.60;99.90;;;;;;5037501;28;20616;-72
2022/08/16 08:40:21;;;;;;;32.83;30.77;;;26.90;99.90;;;;;;5024981;28;20050;-71
2022/08/16 08:42:51;;;;;;;33.17;31.17;;;26.70;99.90;;;;;;5048072;28;20044;-72
2022/08/16 08:45:28;;;;;;;33.15;31.05;;;26.20;99.90;;;;;;5046651;23;20540;-74
2022/08/16 08:48:15;;;;;;;33.47;31.23;;;26.40;99.90;;;;;;5020109;28;20049;-75
2022/08/16 08:51:06;;;;;;;33.75;31.52;;;26.70;99.90;;;;;;5040024;28;20225;-75
2022/08/16 08:53:40;;;;;;;34.92;32.58;;;26.80;99.90;;;;;;5033663;28;20067;-76
2022/08/16 08:56:07;;;;;;;32.90;30.80;;;26.30;99.90;;;;;;5052883;28;20128;-75
2022/08/16 08:58:55;;;;;;;35.17;32.88;;;26.40;99.90;;;;;;5068374;28;20074;-76
2022/08/16 09:01:36;;;;;;;35.33;32.90;;;25.90;99.90;;;;;;5067332;28;20040;-74
2022/08/16 09:04:22;;;;;;;33.65;31.65;;;25.70;99.90;;;;;;5051502;28;20117;-76
2022/08/16 09:06:49;;;;;;;35.22;32.58;;;25.50;99.90;;;;;;5073160;28;20040;-75
2022/08/16 09:09:18;;;;;;;33.47;31.25;;;25.20;99.90;;;;;;5050899;28;20048;-74
2022/08/16 09:11:51;;;;;;;34.13;31.92;;;25.00;99.90;;;;;;5068754;28;20127;-74
2022/08/16 09:14:38;;;;;;;34.25;31.95;;;25.00;99.90;;;;;;5069602;28;20178;-76
2022/08/16 09:17:16;;;;;;;34.38;32.15;;;24.80;99.90;;;;;;5063729;28;20052;-74
2022/08/16 09:20:05;;;;;;;33.60;31.48;;;24.70;99.90;;;;;;5069124;28;20036;-74
2022/08/16 09:22:34;;;;;;;33.00;31.00;;;24.70;99.90;;;;;;5049312;28;20138;-74
2022/08/16 09:25:00;;;;;;;34.08;31.55;;;24.80;99.90;;;;;;5052258;28;20048;-74
2022/08/16 09:27:37;;;;;;;33.63;31.33;;;24.70;99.90;;;;;;5046437;28;20845;-74
2022/08/16 09:30:26;;;;;;;32.53;30.52;;;25.00;99.90;;;;;;5038501;28;20053;-74
2022/08/16 09:33:03;;;;;;;32.60;30.60;;;25.50;99.90;;;;;;5048727;28;20062;-75
2022/08/16 09:35:36;;;;;;;32.40;30.40;;;26.00;99.90;;;;;;5039699;28;20340;-75
2022/08/16 09:38:05;;;;;;;33.15;31.15;;;26.30;99.90;;;;;;5030045;28;20464;-74
2022/08/16 09:40:35;;;;;;;34.30;32.10;;;26.90;99.90;;;;;;5066091;28;20045;-74
2022/08/16 09:43:11;;;;;;;34.45;31.70;;;26.80;99.90;;;;;;5073266;28;20464;-74
2022/08/16 09:45:59;;;;;;;33.22;31.15;;;26.90;99.90;;;;;;5065751;28;20227;-74
2022/08/16 09:48:27;;;;;;;33.00;30.92;;;27.10;99.90;;;;;;5066214;28;20097;-74
2022/08/16 09:51:12;;;;;;;33.77;31.87;;;27.30;99.90;;;;;;5045887;28;20199;-75
2022/08/16 09:53:40;;;;;;;33.00;30.95;;;27.40;99.90;;;;;;5050852;28;20041;-73
2022/08/16 09:56:27;;;;;;;34.33;32.08;;;27.50;99.90;;;;;;5055505;28;20383;-73
2022/08/16 09:58:59;;;;;;;32.95;30.95;;;27.60;99.90;;;;;;5027592;28;20075;-74
2022/08/16 10:01:35;;;;;;;33.40;31.27;;;27.80;99.90;;;;;;5041829;28;20378;-75
2022/08/16 10:04:02;;;;;;;32.17;30.25;;;27.70;99.90;;;;;;5046319;28;20040;-75
2022/08/16 10:06:33;;;;;;;32.45;30.65;;;27.80;99.90;;;;;;5034313;28;20040;-75
2022/08/16 10:09:06;;;;;;;32.92;30.73;;;27.80;99.90;;;;;;5038072;28;20055;-75
2022/08/16 10:14:37;;;;;;;31.35;29.35;;;27.10;99.90;;;;;;5065841;28;20590;-75
2022/08/16 10:17:05;;;;;;;31.73;29.70;;;27.50;99.90;;;;;;5065790;28;20479;-75
2022/08/16 10:19:32;;;;;;;32.42;30.17;;;27.70;99.90;;;;;;5069509;28;20040;-75
2022/08/16 10:21:59;;;;;;;32.97;30.98;;;28.10;99.90;;;;;;5056320;28;20121;-77
2022/08/16 10:24:32;;;;;;;32.10;30.13;;;28.10;99.90;;;;;;5037000;28;20321;-77
2022/08/16 10:26:59;;;;;;;32.90;30.75;;;27.90;99.90;;;;;;5046621;28;20236;-76
2022/08/16 10:29:46;;;;;;;32.50;30.60;;;27.00;99.90;;;;;;5049060;28;20144;-75
2022/08/16 10:32:33;;;;;;;33.42;31.33;;;27.60;99.90;;;;;;5065428;28;20040;-76
2022/08/16 10:35:02;;;;;;;32.33;30.05;;;28.10;99.90;;;;;;5067687;28;20051;-76
2022/08/16 10:37:29;;;;;;;29.17;27.27;;;28.60;99.90;;;;;;5066739;28;20040;-77
2022/08/16 10:40:04;;;;;;;31.05;29.15;;;28.80;99.90;;;;;;5072201;28;20424;-76
2022/08/16 10:42:31;;;;;;;30.90;28.92;;;28.90;99.90;;;;;;5051048;28;20143;-77
2022/08/16 10:44:59;;;;;;;30.55;28.63;;;28.90;99.90;;;;;;5051773;28;20567;-75
2022/08/16 10:47:25;;;;;;;32.42;30.25;;;29.30;99.90;;;;;;5053051;28;20041;-76
2022/08/16 10:49:59;;;;;;;32.15;30.25;;;29.40;99.90;;;;;;5053782;28;20044;-76
2022/08/16 10:52:26;;;;;;;32.53;30.63;;;29.50;99.90;;;;;;5047132;28;20067;-74
2022/08/16 10:54:59;;;;;;;32.22;30.33;;;29.50;99.90;;;;;;5052638;28;20332;-73
2022/08/16 10:57:47;;;;;;;32.95;30.95;;;29.60;99.90;;;;;;5055780;28;20682;-72
2022/08/16 11:00:16;;;;;;;30.63;28.33;;;29.20;99.90;;;;;;5068411;28;20040;-71
2022/08/16 11:02:47;;;;;;;33.38;31.48;;;29.10;99.90;;;;;;5050666;28;20044;-72
2022/08/16 11:05:27;;;;;;;32.65;30.48;;;29.40;99.90;;;;;;5051536;28;20071;-70
2022/08/16 11:08:14;;;;;;;32.20;30.40;;;29.60;99.90;;;;;;5069594;28;20044;-70
2022/08/16 11:10:45;;;;;;;30.75;29.02;;;29.40;99.90;;;;;;5054248;28;20402;-71
2022/08/16 11:13:32;;;;;;;32.75;30.85;;;29.20;99.90;;;;;;5072674;28;20198;-71
2022/08/16 11:16:19;;;;;;;32.67;30.73;;;29.30;99.90;;;;;;5069685;28;20071;-71
2022/08/16 11:19:06;;;;;;;32.50;30.33;;;29.70;99.90;;;;;;5066676;28;20048;-70
2022/08/16 11:21:42;;;;;;;34.05;31.75;;;29.80;99.90;;;;;;5068754;28;20139;-71
2022/08/16 11:24:29;;;;;;;34.22;32.03;;;29.80;99.90;;;;;;5060833;28;20409;-71
2022/08/16 11:27:15;;;;;;;33.63;31.55;;;30.10;99.90;;;;;;5054949;28;20172;-71
2022/08/16 11:29:52;;;;;;;34.55;32.33;;;30.40;99.90;;;;;;5069308;28;20036;-71
2022/08/16 11:32:22;;;;;;;34.58;32.22;;;30.40;99.90;;;;;;5069067;28;20521;-70
2022/08/16 11:35:08;;;;;;;32.90;31.00;;;29.90;99.90;;;;;;5045348;28;20143;-71
2022/08/16 11:37:47;;;;;;;34.92;32.72;;;30.00;99.90;;;;;;5066175;28;20269;-71
2022/08/16 11:40:40;;;;;;;34.97;32.88;;;30.20;99.90;;;;;;5063413;28;20046;-71
2022/08/16 11:43:11;;;;;;;33.78;31.67;;;30.50;99.90;;;;;;5052159;28;20059;-70
2022/08/16 11:45:43;;;;;;;33.97;32.05;;;30.50;99.90;;;;;;5062825;28;20654;-71
2022/08/16 11:48:20;;;;;;;34.15;31.95;;;30.20;99.90;;;;;;5069292;28;20041;-71
2022/08/16 11:50:48;;;;;;;34.45;32.15;;;30.20;99.90;;;;;;5065966;28;20289;-71
2022/08/16 11:53:16;;;;;;;35.78;33.38;;;30.20;99.90;;;;;;5065827;28;20063;-70
2022/08/16 11:55:43;;;;;;;34.85;32.45;;;30.10;99.90;;;;;;5041702;28;20341;-71
2022/08/16 11:58:11;;;;;;;35.85;33.55;;;29.80;99.90;;;;;;5069345;28;20060;-72
2022/08/16 12:00:42;;;;;;;36.33;33.92;;;29.90;99.90;;;;;;5069929;28;20466;-71
2022/08/16 12:03:20;;;;;;;36.85;34.35;;;30.20;99.90;;;;;;5066238;28;20570;-71
2022/08/16 12:06:09;;;;;;;34.60;32.17;;;30.40;99.90;;;;;;5067356;28;20054;-72
2022/08/16 12:08:56;;;;;;;35.15;32.75;;;30.40;99.90;;;;;;5050685;28;20229;-72
2022/08/16 12:11:27;;;;;;;35.95;33.45;;;30.40;99.90;;;;;;5063598;28;20067;-72
2022/08/16 12:14:01;;;;;;;36.75;34.42;;;30.20;99.90;;;;;;5064829;28;20128;-72
2022/08/16 12:16:34;;;;;;;35.67;33.40;;;29.90;99.90;;;;;;5062492;28;20113;-72
2022/08/16 12:19:04;;;;;;;35.92;33.67;;;30.40;99.90;;;;;;5067580;28;20233;-72
2022/08/16 12:21:32;;;;;;;35.50;33.17;;;30.80;99.90;;;;;;5060097;28;20060;-72
2022/08/16 12:24:20;;;;;;;35.47;33.22;;;30.80;99.90;;;;;;5063201;28;20505;-72
2022/08/16 12:26:50;;;;;;;38.25;35.90;;;30.70;99.90;;;;;;5067789;28;20038;-72
2022/08/16 12:29:18;;;;;;;35.22;32.97;;;30.70;99.90;;;;;;5067242;28;20115;-73
2022/08/16 12:31:47;;;;;;;37.10;34.35;;;30.50;99.90;;;;;;5048681;28;20045;-73
2022/08/16 12:34:35;;;;;;;35.70;33.60;;;30.10;99.90;;;;;;5058520;28;20601;-73
2022/08/16 12:37:03;;;;;;;34.55;32.45;;;29.60;99.90;;;;;;5065614;28;20148;-73
2022/08/16 12:39:37;;;;;;;36.17;33.72;;;29.50;99.90;;;;;;5062081;28;20223;-72
2022/08/16 12:42:13;;;;;;;34.40;32.20;;;29.50;99.90;;;;;;5065368;28;20048;-72
2022/08/16 12:44:42;;;;;;;35.38;33.25;;;29.70;99.90;;;;;;5063382;28;20047;-72
2022/08/16 12:49:54;;;;;;;35.15;33.08;;;29.90;99.90;;;;;;5069426;28;20044;-73
2022/08/16 12:52:23;;;;;;;35.65;33.30;;;30.20;99.60;;;;;;5059865;28;20140;-72
2022/08/16 12:55:01;;;;;;;33.95;31.95;;;30.00;98.40;;;;;;5059140;28;20417;-70
2022/08/16 12:57:28;;;;;;;35.25;32.95;;;29.80;99.30;;;;;;5055917;28;20106;-71
2022/08/16 13:00:11;;;;;;;36.30;33.90;;;30.10;99.80;;;;;;5063552;28;20511;-71
2022/08/16 13:02:53;;;;;;;35.45;33.28;;;30.30;99.90;;;;;;5067567;28;20152;-71
2022/08/16 13:05:20;;;;;;;36.53;34.47;;;30.50;99.70;;;;;;5062283;28;20427;-71
2022/08/16 13:07:48;;;;;;;33.97;31.83;;;30.80;99.20;;;;;;5047154;28;20040;-71
2022/08/16 13:10:20;;;;;;;35.55;33.38;;;30.70;99.50;;;;;;5065040;28;20040;-71
2022/08/16 13:13:06;;;;;;;34.65;32.45;;;30.60;99.40;;;;;;5063799;28;20143;-72
2022/08/16 13:15:35;;;;;;;35.63;33.20;;;30.70;98.90;;;;;;5058301;28;20946;-72